createdAt,value
2018-04-22T00:02:23.031Z,14.50
2018-04-22T00:04:51.305Z,14.20
2018-04-22T00:07:19.573Z,15.77
2018-04-22T00:09:47.819Z,14.70
2018-04-22T00:12:15.284Z,15.63
2018-04-22T00:14:42.775Z,16.13
2018-04-22T00:17:10.260Z,16.40
2018-04-22T00:19:37.745Z,14.47
2018-04-22T00:22:05.239Z,16.77
2018-04-22T00:24:33.489Z,15.40
2018-04-22T00:27:01.005Z,16.40
2018-04-22T00:29:28.474Z,15.70
2018-04-22T00:31:55.967Z,14.57
2018-04-22T00:34:23.432Z,14.43
2018-04-22T00:36:50.912Z,14.10
2018-04-22T00:39:18.400Z,16.33
2018-04-22T00:41:46.094Z,14.80
2018-04-22T00:44:14.132Z,14.80
2018-04-22T00:46:41.606Z,14.43
2018-04-22T00:49:09.097Z,14.50
2018-04-22T00:51:36.602Z,14.87
2018-04-22T00:54:15.817Z,14.83
2018-04-22T00:56:44.068Z,14.70
2018-04-22T00:59:11.526Z,14.90
2018-04-22T01:01:39.006Z,15.40
2018-04-22T01:04:06.493Z,15.80
2018-04-22T01:06:33.987Z,18.53
2018-04-22T01:09:01.487Z,16.80
2018-04-22T01:11:28.961Z,15.90
2018-04-22T01:13:56.429Z,16.20
2018-04-22T01:16:23.946Z,16.37
2018-04-22T01:18:51.434Z,17.00
2018-04-22T01:21:18.922Z,17.00
2018-04-22T01:23:46.414Z,16.10
2018-04-22T01:26:14.666Z,16.17
2018-04-22T01:28:42.153Z,16.73
2018-04-22T01:31:10.399Z,15.80
2018-04-22T01:33:37.874Z,15.93
2018-04-22T01:36:06.133Z,15.50
2018-04-22T01:38:33.605Z,16.17
2018-04-22T01:41:01.119Z,16.80
2018-04-22T01:43:28.602Z,17.40
2018-04-22T01:45:56.082Z,16.50
2018-04-22T01:48:24.325Z,16.63
2018-04-22T01:50:51.799Z,17.50
2018-04-22T01:53:19.292Z,16.30
2018-04-22T01:55:47.527Z,16.90
2018-04-22T01:58:15.021Z,17.07
2018-04-22T02:00:43.294Z,16.60
2018-04-22T02:03:11.533Z,16.50
2018-04-22T02:05:39.032Z,17.07
2018-04-22T02:08:07.279Z,15.57
2018-04-22T02:10:34.759Z,16.17
2018-04-22T02:13:03.010Z,16.20
2018-04-22T02:15:30.489Z,16.70
2018-04-22T02:17:57.993Z,16.20
2018-04-22T02:20:25.487Z,16.30
2018-04-22T02:22:52.989Z,15.33
2018-04-22T02:25:20.458Z,16.27
2018-04-22T02:27:47.919Z,17.57
2018-04-22T02:30:15.431Z,17.10
2018-04-22T02:32:42.885Z,16.97
2018-04-22T02:35:10.397Z,16.93
2018-04-22T02:37:37.898Z,17.30
2018-04-22T02:40:05.363Z,16.70
2018-04-22T02:42:33.636Z,16.50
2018-04-22T02:45:01.107Z,17.30
2018-04-22T02:47:29.362Z,16.73
2018-04-22T02:49:56.839Z,17.23
2018-04-22T02:52:24.326Z,17.37
2018-04-22T02:54:51.814Z,18.30
2018-04-22T02:57:19.305Z,18.03
2018-04-22T02:59:47.565Z,17.27
2018-04-22T03:02:15.819Z,19.20
2018-04-22T03:04:43.290Z,17.17
2018-04-22T03:07:10.780Z,19.20
2018-04-22T03:09:38.250Z,17.53
2018-04-22T03:12:05.750Z,17.80
2018-04-22T03:14:33.208Z,17.63
2018-04-22T03:17:00.702Z,18.13
2018-04-22T03:19:28.950Z,19.20
2018-04-22T03:21:56.408Z,18.40
2018-04-22T03:24:23.904Z,18.97
2018-04-22T03:26:51.382Z,18.83
2018-04-22T03:29:18.876Z,20.07
2018-04-22T03:31:46.360Z,17.90
2018-04-22T03:34:14.604Z,20.73
2018-04-22T03:36:42.080Z,20.80
2018-04-22T03:39:09.531Z,22.17
2018-04-22T03:41:37.010Z,19.27
2018-04-22T03:44:04.500Z,21.40
2018-04-22T03:46:32.006Z,21.10
2018-04-22T03:48:59.474Z,20.50
2018-04-22T03:51:28.513Z,20.57
2018-04-22T03:53:55.990Z,20.37
2018-04-22T03:56:23.478Z,20.47
2018-04-22T03:58:51.002Z,19.70
2018-04-22T04:01:18.484Z,19.47
2018-04-22T04:03:45.961Z,18.63
2018-04-22T04:06:13.439Z,19.23
2018-04-22T04:08:40.913Z,19.43
2018-04-22T04:11:08.419Z,19.97
2018-04-22T04:13:35.913Z,21.80
2018-04-22T04:16:03.412Z,20.43
2018-04-22T04:18:52.381Z,20.20
2018-04-22T04:21:31.568Z,19.70
2018-04-22T04:27:25.423Z,18.80
2018-04-22T04:29:52.899Z,18.60
2018-04-22T04:32:20.386Z,21.63
2018-04-22T04:34:47.877Z,20.67
2018-04-22T04:37:15.361Z,19.57
2018-04-22T04:39:42.863Z,19.57
2018-04-22T04:42:10.325Z,20.00
2018-04-22T04:44:37.822Z,18.47
2018-04-22T04:47:05.296Z,18.70
2018-04-22T04:49:32.780Z,19.10
2018-04-22T04:52:00.274Z,17.37
2018-04-22T04:54:27.767Z,19.67
2018-04-22T04:56:56.038Z,20.50
2018-04-22T04:59:23.518Z,18.37
2018-04-22T05:01:51.767Z,22.77
2018-04-22T05:04:19.244Z,21.00
2018-04-22T05:06:47.486Z,21.03
2018-04-22T05:09:14.973Z,21.27
2018-04-22T05:11:43.222Z,20.33
2018-04-22T05:14:10.712Z,21.77
2018-04-22T05:16:38.986Z,21.70
2018-04-22T05:19:07.228Z,20.80
2018-04-22T05:21:34.719Z,21.50
2018-04-22T05:24:02.948Z,21.13
2018-04-22T05:26:30.448Z,20.53
2018-04-22T05:28:58.694Z,19.60
2018-04-22T05:31:26.210Z,18.53
2018-04-22T05:33:53.694Z,17.70
2018-04-22T05:36:21.171Z,17.67
2018-04-22T05:38:48.668Z,17.07
2018-04-22T05:41:16.888Z,16.70
2018-04-22T05:43:44.390Z,15.10
2018-04-22T05:46:12.620Z,14.60
2018-04-22T05:48:40.118Z,15.63
2018-04-22T05:51:07.590Z,15.10
2018-04-22T05:53:35.075Z,14.57
2018-04-22T05:56:02.549Z,14.53
2018-04-22T05:58:30.018Z,14.40
2018-04-22T06:00:57.580Z,15.13
2018-04-22T06:03:25.054Z,15.10
2018-04-22T06:05:52.542Z,14.43
2018-04-22T06:08:20.035Z,13.90
2018-04-22T06:10:47.506Z,13.73
2018-04-22T06:13:14.996Z,14.90
2018-04-22T06:15:43.244Z,13.60
2018-04-22T06:18:10.732Z,13.57
2018-04-22T06:20:38.993Z,13.67
2018-04-22T06:23:06.484Z,14.40
2018-04-22T06:25:33.955Z,15.40
2018-04-22T06:28:01.419Z,14.33
2018-04-22T06:30:28.925Z,13.33
2018-04-22T06:32:56.416Z,13.70
2018-04-22T06:35:23.922Z,15.23
2018-04-22T06:37:51.403Z,13.40
2018-04-22T06:40:18.952Z,14.90
2018-04-22T06:42:46.396Z,14.57
2018-04-22T06:45:13.867Z,14.20
2018-04-22T06:47:41.362Z,14.27
2018-04-22T06:50:08.850Z,15.13
2018-04-22T06:52:36.366Z,14.37
2018-04-22T06:55:04.616Z,13.87
2018-04-22T06:57:32.102Z,14.33
2018-04-22T07:00:00.382Z,14.40
2018-04-22T07:02:28.647Z,13.97
2018-04-22T07:04:56.889Z,13.60
2018-04-22T07:07:24.403Z,15.40
2018-04-22T07:09:51.903Z,14.77
2018-04-22T07:12:19.517Z,15.77
2018-04-22T07:14:46.997Z,14.80
2018-04-22T07:17:14.523Z,15.27
2018-04-22T07:19:42.038Z,15.50
2018-04-22T07:22:09.989Z,16.70
2018-04-22T07:24:37.492Z,16.60
2018-04-22T07:27:04.970Z,16.83
2018-04-22T07:29:32.454Z,17.33
2018-04-22T07:31:59.931Z,16.43
2018-04-22T07:34:27.417Z,17.57
2018-04-22T07:36:54.911Z,17.70
2018-04-22T07:39:22.415Z,16.60
2018-04-22T07:41:49.908Z,17.23
2018-04-22T07:44:18.156Z,18.20
2018-04-22T07:46:45.996Z,17.70
2018-04-22T07:49:13.492Z,16.70
2018-04-22T07:51:40.966Z,16.80
2018-04-22T07:54:08.460Z,16.50
2018-04-22T07:56:35.953Z,16.83
2018-04-22T07:59:03.948Z,16.50
2018-04-22T08:01:31.577Z,17.97
2018-04-22T08:03:59.099Z,16.50
2018-04-22T08:06:26.598Z,17.50
2018-04-22T08:08:55.336Z,17.60
2018-04-22T08:11:22.846Z,16.07
2018-04-22T08:13:50.343Z,17.23
2018-04-22T08:16:17.865Z,17.20
2018-04-22T08:18:45.331Z,16.30
2018-04-22T08:21:13.612Z,15.90
2018-04-22T08:23:41.881Z,15.80
2018-04-22T08:26:09.362Z,16.63
2018-04-22T08:28:36.862Z,15.50
2018-04-22T08:31:04.368Z,16.60
2018-04-22T08:33:31.919Z,14.83
2018-04-22T08:35:59.710Z,14.13
2018-04-22T08:38:27.399Z,14.73
2018-04-22T08:40:56.111Z,15.40
2018-04-22T08:43:23.632Z,14.00
2018-04-22T08:45:51.149Z,14.20
2018-04-22T08:48:18.630Z,14.23
2018-04-22T08:50:46.165Z,13.70
2018-04-22T08:53:14.430Z,14.10
2018-04-22T08:55:41.937Z,14.93
2018-04-22T08:58:09.449Z,13.93
2018-04-22T09:00:36.961Z,15.67
2018-04-22T09:03:04.448Z,15.10
2018-04-22T09:05:31.973Z,14.27
2018-04-22T09:07:59.455Z,14.33
2018-04-22T09:10:26.960Z,14.67
2018-04-22T09:12:55.250Z,13.57
2018-04-22T09:15:22.776Z,13.33
2018-04-22T09:17:50.344Z,11.30
2018-04-22T09:20:18.639Z,10.23
2018-04-22T09:22:46.184Z,10.17
2018-04-22T09:25:14.436Z,9.70
2018-04-22T09:27:41.920Z,9.37
2018-04-22T09:30:10.216Z,11.07
2018-04-22T09:32:37.694Z,9.73
2018-04-22T09:35:05.178Z,9.83
2018-04-22T09:37:32.712Z,10.10
2018-04-22T09:40:00.244Z,8.90
2018-04-22T09:42:27.742Z,9.30
2018-04-22T09:44:55.268Z,9.40
2018-04-22T09:47:22.760Z,9.67
2018-04-22T09:49:50.253Z,9.40
2018-04-22T09:52:18.524Z,9.27
2018-04-22T09:54:46.021Z,8.77
2018-04-22T09:57:13.553Z,8.30
2018-04-22T09:59:41.043Z,8.57
2018-04-22T10:02:16.187Z,8.03
2018-04-22T10:04:44.570Z,7.97
2018-04-22T10:07:12.085Z,10.50
2018-04-22T10:09:40.331Z,9.10
2018-04-22T10:12:07.838Z,8.07
2018-04-22T10:14:35.316Z,8.40
2018-04-22T10:17:02.793Z,7.83
2018-04-22T10:19:30.309Z,8.50
2018-04-22T10:21:58.545Z,7.90
2018-04-22T10:24:26.019Z,7.20
2018-04-22T10:26:53.500Z,7.40
2018-04-22T10:29:21.021Z,8.10
2018-04-22T10:31:49.280Z,6.80
2018-04-22T10:34:16.780Z,7.80
2018-04-22T10:36:45.064Z,9.10
2018-04-22T10:39:12.554Z,8.57
2018-04-22T10:41:40.057Z,7.23
2018-04-22T10:44:08.305Z,7.33
2018-04-22T10:46:35.798Z,6.90
2018-04-22T10:49:05.950Z,7.60
2018-04-22T10:51:33.460Z,6.97
2018-04-22T10:54:00.989Z,6.90
2018-04-22T10:56:28.531Z,6.33
2018-04-22T10:58:56.057Z,7.57
2018-04-22T11:01:24.282Z,6.77
2018-04-22T11:03:51.834Z,6.17
2018-04-22T11:06:19.330Z,6.83
2018-04-22T11:08:46.875Z,6.83
2018-04-22T11:11:14.375Z,8.23
2018-04-22T11:13:41.858Z,7.13
2018-04-22T11:16:09.333Z,6.50
2018-04-22T11:18:36.798Z,6.90
2018-04-22T11:21:04.313Z,7.80
2018-04-22T11:23:31.860Z,7.70
2018-04-22T11:26:00.116Z,7.40
2018-04-22T11:28:27.580Z,7.97
2018-04-22T11:30:55.080Z,7.67
2018-04-22T11:33:22.538Z,7.70
2018-04-22T11:35:50.800Z,6.70
2018-04-22T11:38:18.296Z,6.67
2018-04-22T11:40:45.774Z,6.60
2018-04-22T11:43:13.300Z,5.87
2018-04-22T11:45:40.770Z,6.10
2018-04-22T11:48:08.306Z,6.03
2018-04-22T11:50:35.773Z,6.27
2018-04-22T11:53:03.257Z,5.63
2018-04-22T11:55:30.761Z,6.50
2018-04-22T11:57:58.234Z,6.63
2018-04-22T12:00:25.741Z,5.53
2018-04-22T12:02:53.214Z,6.47
2018-04-22T12:05:21.512Z,5.50
2018-04-22T12:07:49.001Z,5.63
2018-04-22T12:10:16.519Z,5.93
2018-04-22T12:12:44.085Z,5.77
2018-04-22T12:15:11.626Z,6.53
2018-04-22T12:17:39.132Z,6.47
2018-04-22T12:20:06.642Z,6.03
2018-04-22T12:22:34.951Z,5.93
2018-04-22T12:25:02.452Z,7.17
2018-04-22T12:27:30.076Z,6.03
2018-04-22T12:29:57.614Z,6.33
2018-04-22T12:32:25.222Z,5.70
2018-04-22T12:34:52.703Z,8.10
2018-04-22T12:37:20.185Z,6.87
2018-04-22T12:39:48.448Z,6.40
2018-04-22T12:42:16.732Z,6.37
2018-04-22T12:44:44.981Z,5.40
2018-04-22T12:47:12.451Z,5.63
2018-04-22T12:49:40.707Z,5.67
2018-04-22T12:52:08.167Z,5.47
2018-04-22T12:54:35.643Z,5.90
2018-04-22T12:57:03.972Z,5.47
2018-04-22T12:59:31.484Z,4.70
2018-04-22T13:01:58.980Z,4.90
2018-04-22T13:04:26.451Z,4.73
2018-04-22T13:06:53.951Z,5.43
2018-04-22T13:09:22.257Z,5.50
2018-04-22T13:11:49.744Z,5.10
2018-04-22T13:14:17.243Z,5.03
2018-04-22T13:16:45.518Z,4.30
2018-04-22T13:19:13.921Z,4.20
2018-04-22T13:21:41.395Z,4.33
2018-04-22T13:24:08.897Z,4.70
2018-04-22T13:26:36.366Z,4.47
2018-04-22T13:29:04.627Z,5.47
2018-04-22T13:31:32.110Z,4.50
2018-04-22T13:34:00.368Z,4.27
2018-04-22T13:36:27.865Z,4.50
2018-04-22T13:38:55.355Z,4.27
2018-04-22T13:41:22.853Z,4.90
2018-04-22T13:43:50.375Z,4.63
2018-04-22T13:46:17.865Z,4.33
2018-04-22T13:48:45.402Z,4.53
2018-04-22T13:51:12.874Z,4.77
2018-04-22T13:53:40.714Z,4.50
2018-04-22T13:56:08.194Z,4.60
2018-04-22T13:58:35.675Z,4.30
2018-04-22T14:01:03.145Z,5.03
2018-04-22T14:03:30.648Z,4.90
2018-04-22T14:05:58.112Z,4.57
2018-04-22T14:08:25.609Z,4.80
2018-04-22T14:10:53.867Z,5.30
2018-04-22T14:13:21.355Z,5.67
2018-04-22T14:15:48.857Z,5.33
2018-04-22T14:18:16.843Z,4.97
2018-04-22T14:20:44.336Z,4.73
2018-04-22T14:23:11.849Z,5.33
2018-04-22T14:25:39.340Z,6.23
2018-04-22T14:28:07.609Z,4.10
2018-04-22T14:30:35.891Z,3.93
2018-04-22T14:33:04.152Z,4.77
2018-04-22T14:35:31.616Z,4.73
2018-04-22T14:37:59.958Z,5.20
2018-04-22T14:40:27.416Z,4.70
2018-04-22T14:42:54.912Z,5.30
2018-04-22T14:45:34.140Z,4.70
2018-04-22T14:48:02.399Z,4.40
2018-04-22T14:50:29.905Z,4.80
2018-04-22T14:52:57.401Z,4.17
2018-04-22T14:55:24.891Z,4.67
2018-04-22T14:57:53.209Z,4.00
2018-04-22T15:00:20.656Z,3.90
2018-04-22T15:02:48.127Z,4.70
2018-04-22T15:05:15.637Z,4.70
2018-04-22T15:07:43.116Z,4.37
2018-04-22T15:10:10.599Z,4.63
2018-04-22T15:12:38.097Z,4.60
2018-04-22T15:15:05.590Z,4.30
2018-04-22T15:17:33.124Z,4.60
2018-04-22T15:20:01.396Z,4.53
2018-04-22T15:22:28.869Z,5.13
2018-04-22T15:24:57.157Z,4.67
2018-04-22T15:27:24.595Z,4.83
2018-04-22T15:29:52.847Z,4.33
2018-04-22T15:32:20.337Z,5.07
2018-04-22T15:34:48.621Z,4.50
2018-04-22T15:37:16.854Z,4.90
2018-04-22T15:39:44.372Z,5.13
2018-04-22T15:42:11.843Z,4.87
2018-04-22T15:44:39.332Z,4.67
2018-04-22T15:47:06.813Z,5.47
2018-04-22T15:49:34.322Z,5.27
2018-04-22T15:52:01.835Z,5.30
2018-04-22T15:54:30.093Z,6.03
2018-04-22T15:56:57.567Z,4.40
2018-04-22T15:59:25.835Z,4.93
2018-04-22T16:01:54.093Z,4.40
2018-04-22T16:04:21.590Z,4.60
2018-04-22T16:06:49.090Z,4.70
2018-04-22T16:09:16.590Z,4.70
2018-04-22T16:11:44.242Z,4.70
2018-04-22T16:14:11.749Z,4.60
2018-04-22T16:16:39.232Z,4.17
2018-04-22T16:19:06.745Z,4.60
2018-04-22T16:21:34.225Z,4.50
2018-04-22T16:24:01.741Z,5.00
2018-04-22T16:26:29.222Z,4.37
2018-04-22T16:28:56.712Z,4.70
2018-04-22T16:31:24.224Z,4.53
2018-04-22T16:33:52.470Z,4.57
2018-04-22T16:36:19.995Z,4.83
2018-04-22T16:38:47.460Z,4.70
2018-04-22T16:41:15.721Z,5.10
2018-04-22T16:43:43.195Z,4.93
2018-04-22T16:46:10.667Z,4.00
2018-04-22T16:48:38.163Z,4.80
2018-04-22T16:51:06.403Z,5.30
2018-04-22T16:53:34.654Z,4.40
2018-04-22T16:56:02.125Z,5.57
2018-04-22T16:58:29.605Z,4.73
2018-04-22T17:00:57.102Z,4.30
2018-04-22T17:03:24.589Z,4.53
2018-04-22T17:05:52.155Z,4.50
2018-04-22T17:08:19.586Z,4.37
2018-04-22T17:10:47.090Z,3.80
2018-04-22T17:13:14.582Z,4.80
2018-04-22T17:15:42.053Z,3.67
2018-04-22T17:18:09.549Z,3.90
2018-04-22T17:20:37.015Z,3.33
2018-04-22T17:23:04.477Z,4.00
2018-04-22T17:25:31.983Z,4.03
2018-04-22T17:27:59.459Z,4.47
2018-04-22T17:30:26.937Z,3.50
2018-04-22T17:32:54.417Z,4.50
2018-04-22T17:35:21.907Z,3.50
2018-04-22T17:37:49.433Z,3.33
2018-04-22T17:40:16.904Z,3.97
2018-04-22T17:42:44.407Z,3.70
2018-04-22T17:45:12.652Z,4.20
2018-04-22T17:47:40.134Z,4.50
2018-04-22T17:50:07.645Z,4.43
2018-04-22T17:52:35.132Z,4.20
2018-04-22T17:55:02.639Z,3.73
2018-04-22T17:57:30.116Z,4.07
2018-04-22T17:59:57.597Z,4.80
2018-04-22T18:02:25.091Z,3.90
2018-04-22T18:04:52.587Z,4.23
2018-04-22T18:07:20.132Z,4.70
2018-04-22T18:09:47.667Z,4.73
2018-04-22T18:12:15.451Z,3.93
2018-04-22T18:14:42.976Z,4.10
2018-04-22T18:17:10.492Z,4.00
2018-04-22T18:19:38.724Z,3.83
2018-04-22T18:22:06.585Z,5.33
2018-04-22T18:24:34.056Z,4.63
2018-04-22T18:27:01.570Z,4.50
2018-04-22T18:29:29.092Z,4.00
2018-04-22T18:31:56.571Z,5.50
2018-04-22T18:34:24.130Z,4.17
2018-04-22T18:36:51.639Z,4.57
2018-04-22T18:39:19.121Z,4.40
2018-04-22T18:41:46.588Z,4.13
2018-04-22T18:44:14.917Z,4.53
2018-04-22T18:46:42.404Z,4.83
2018-04-22T18:49:10.714Z,4.87
2018-04-22T18:51:39.010Z,5.03
2018-04-22T18:54:06.500Z,4.20
2018-04-22T18:56:34.727Z,4.53
2018-04-22T18:59:02.981Z,4.40
2018-04-22T19:01:30.462Z,5.00
2018-04-22T19:03:58.730Z,4.80
2018-04-22T19:06:26.227Z,4.90
2018-04-22T19:08:53.694Z,8.20
2018-04-22T19:11:21.240Z,6.47
2018-04-22T19:13:48.711Z,5.40
2018-04-22T19:16:16.241Z,4.57
2018-04-22T19:18:44.475Z,4.87
2018-04-22T19:21:11.949Z,5.07
2018-04-22T19:23:39.446Z,4.33
2018-04-22T19:26:07.739Z,4.57
2018-04-22T19:28:35.284Z,5.57
2018-04-22T19:31:02.771Z,5.50
2018-04-22T19:33:30.241Z,4.50
2018-04-22T19:35:57.732Z,5.13
2018-04-22T19:38:25.442Z,4.90
2018-04-22T19:40:53.748Z,4.97
2018-04-22T19:43:21.625Z,5.63
2018-04-22T19:45:49.083Z,5.20
2018-04-22T19:48:17.341Z,5.30
2018-04-22T19:50:46.009Z,5.97
2018-04-22T19:53:13.538Z,4.70
2018-04-22T19:55:41.070Z,5.77
2018-04-22T19:58:08.566Z,5.37
2018-04-22T20:00:36.274Z,5.70
2018-04-22T20:03:04.714Z,5.23
2018-04-22T20:05:32.213Z,5.90
2018-04-22T20:08:00.492Z,5.33
2018-04-22T20:10:27.970Z,5.00
2018-04-22T20:12:56.260Z,5.57
2018-04-22T20:15:23.760Z,4.67
2018-04-22T20:17:51.254Z,5.17
2018-04-22T20:20:19.497Z,5.50
2018-04-22T20:22:46.974Z,5.23
2018-04-22T20:25:15.272Z,4.90
2018-04-22T20:27:43.359Z,5.00
2018-04-22T20:30:10.865Z,5.07
2018-04-22T20:32:38.395Z,5.63
2018-04-22T20:35:05.926Z,5.50
2018-04-22T20:37:34.828Z,4.80
2018-04-22T20:40:03.486Z,6.03
2018-04-22T20:42:31.811Z,5.13
2018-04-22T20:44:59.359Z,5.77
2018-04-22T20:47:26.885Z,5.60
2018-04-22T20:49:54.400Z,5.17
2018-04-22T20:52:21.864Z,7.20
2018-04-22T20:54:49.351Z,5.80
2018-04-22T20:57:17.658Z,5.10
2018-04-22T20:59:45.138Z,5.97
2018-04-22T21:02:12.602Z,8.80
2018-04-22T21:04:40.089Z,6.30
2018-04-22T21:07:07.574Z,6.23
2018-04-22T21:09:35.053Z,6.60
2018-04-22T21:12:02.573Z,6.50
2018-04-22T21:14:30.805Z,5.80
2018-04-22T21:16:58.276Z,5.90
2018-04-22T21:19:25.790Z,6.70
2018-04-22T21:21:53.267Z,6.00
2018-04-22T21:24:20.745Z,6.37
2018-04-22T21:26:48.248Z,6.43
2018-04-22T21:29:16.823Z,5.90
2018-04-22T21:31:45.075Z,6.27
2018-04-22T21:34:12.566Z,7.03
2018-04-22T21:36:40.804Z,6.47
2018-04-22T21:39:08.278Z,6.17
2018-04-22T21:41:35.766Z,6.23
2018-04-22T21:44:03.252Z,6.30
2018-04-22T21:46:30.730Z,6.60
2018-04-22T21:48:58.205Z,6.70
2018-04-22T21:51:25.682Z,6.03
2018-04-22T21:53:53.194Z,5.87
2018-04-22T21:56:20.664Z,6.60
2018-04-22T21:58:48.156Z,6.90
2018-04-22T22:01:15.643Z,6.30
2018-04-22T22:03:43.139Z,7.20
2018-04-22T22:06:10.636Z,6.60
2018-04-22T22:08:38.123Z,6.80
2018-04-22T22:11:05.607Z,6.33
2018-04-22T22:13:33.068Z,6.10
2018-04-22T22:16:00.542Z,6.70
2018-04-22T22:18:28.026Z,6.73
2018-04-22T22:20:56.272Z,6.33
2018-04-22T22:23:23.777Z,6.50
2018-04-22T22:25:51.239Z,6.80
2018-04-22T22:28:19.792Z,6.70
2018-04-22T22:30:48.043Z,7.70
2018-04-22T22:33:15.521Z,6.93
2018-04-22T22:35:43.772Z,7.50
2018-04-22T22:38:11.244Z,7.83
2018-04-22T22:40:39.480Z,9.10
2018-04-22T22:43:06.967Z,7.00
2018-04-22T22:45:34.447Z,6.70
2018-04-22T22:48:02.677Z,7.70
2018-04-22T22:50:30.454Z,8.30
2018-04-22T22:52:58.057Z,7.77
2018-04-22T22:55:25.557Z,7.93
2018-04-22T22:57:53.072Z,7.70
2018-04-22T23:00:21.449Z,7.50
2018-04-22T23:02:49.819Z,7.50
2018-04-22T23:05:18.060Z,7.37
2018-04-22T23:07:45.538Z,7.60
2018-04-22T23:10:13.010Z,7.23
2018-04-22T23:12:40.500Z,7.17
2018-04-22T23:15:08.042Z,6.97
2018-04-22T23:17:35.506Z,8.00
2018-04-22T23:20:03.002Z,8.10
2018-04-22T23:22:30.480Z,7.70
2018-04-22T23:24:57.970Z,8.10
2018-04-22T23:27:25.441Z,7.87
2018-04-22T23:29:52.912Z,7.80
2018-04-22T23:32:20.373Z,7.67
2018-04-22T23:34:47.841Z,8.20
2018-04-22T23:37:15.353Z,8.77
2018-04-22T23:39:43.584Z,7.77
2018-04-22T23:42:11.061Z,7.30
2018-04-22T23:44:39.312Z,7.27
2018-04-22T23:47:06.790Z,6.63
2018-04-22T23:49:34.293Z,6.47
2018-04-22T23:52:01.765Z,7.20
2018-04-22T23:54:29.227Z,7.20
2018-04-22T23:56:56.728Z,7.60
2018-04-22T23:59:24.973Z,7.17
